Time;durP1;ratioP1;P1;durP2;ratioP2;P2;SDS_P1;SDS_P2;PMS_P1;PMS_P2;Temp;Humidity;BMP_temperature;BMP_pressure;BME280_temperature;BME280_humidity;BME280_pressure;Samples;Min_cycle;Max_cycle;Signal;HPM_P1;HPM_P2
2021/10/02 00:33:27;;;;;;;8.73;7.93;;;11.20;99.90;;;12.10;87.05;97953.41;5062832;29;20221;-62
2021/10/02 00:38:05;;;;;;;8.48;7.60;;;11.10;99.90;;;12.00;87.40;97952.06;5050510;29;20206;-62
2021/10/02 00:46:19;;;;;;;7.85;7.15;;;11.10;99.90;;;12.03;88.14;97964.16;5063863;29;20225;-62
2021/10/02 00:48:53;;;;;;;8.57;7.88;;;11.10;99.90;;;12.01;88.29;97966.63;5064470;29;20230;-62
2021/10/02 00:51:27;;;;;;;7.85;7.15;;;11.10;99.90;;;11.97;87.99;97959.59;5061017;29;20301;-62
2021/10/02 00:54:00;;;;;;;7.93;7.22;;;11.00;99.90;;;11.93;87.93;97957.66;5060971;29;20210;-59
2021/10/02 00:56:33;;;;;;;8.00;7.30;;;11.00;99.90;;;11.94;87.66;97954.31;5064223;29;20730;-62
2021/10/02 00:59:06;;;;;;;7.38;6.75;;;11.00;99.90;;;11.86;87.69;97955.56;5064761;29;20205;-62
2021/10/02 01:01:51;;;;;;;7.95;7.20;;;10.90;99.90;;;11.89;87.75;97953.19;5064643;29;20213;-60
2021/10/02 01:04:37;;;;;;;8.10;7.35;;;10.90;99.90;;;11.87;88.00;97949.66;5062809;29;20306;-62
2021/10/02 01:07:22;;;;;;;7.85;7.15;;;10.90;99.90;;;11.87;88.52;97952.19;5060911;29;20222;-62
2021/10/02 01:10:11;;;;;;;7.38;6.78;;;11.00;99.90;;;11.90;88.27;97957.47;5063863;29;20215;-62
2021/10/02 01:13:00;;;;;;;8.10;7.40;;;11.00;99.90;;;11.89;88.51;97953.19;5064449;29;20245;-62
2021/10/02 01:15:45;;;;;;;8.25;7.47;;;11.00;99.90;;;11.91;88.33;97949.91;5064312;29;20258;-61
2021/10/02 01:18:23;;;;;;;7.97;7.18;;;11.00;99.90;;;11.91;88.71;97959.28;5060129;29;20730;-62
2021/10/02 01:21:17;;;;;;;7.38;6.70;;;11.00;99.90;;;11.91;88.90;97954.16;5063613;29;20205;-61
2021/10/02 01:24:04;;;;;;;7.57;6.82;;;11.00;99.90;;;11.93;88.67;97957.66;5063533;29;20206;-61
2021/10/02 01:27:18;;;;;;;7.53;6.85;;;11.00;99.90;;;11.92;88.78;97950.78;5063689;29;20703;-61
2021/10/02 01:29:54;;;;;;;7.90;7.10;;;11.00;99.90;;;11.94;88.55;97944.94;5061727;29;20602;-61
2021/10/02 01:32:32;;;;;;;6.97;6.38;;;11.00;99.90;;;11.96;88.42;97947.59;5063973;29;20650;-60
2021/10/02 01:35:15;;;;;;;7.30;6.60;;;11.00;99.90;;;11.92;88.68;97948.22;5062991;29;20234;-60
2021/10/02 01:47:06;;;;;;;7.32;6.72;;;11.00;99.90;;;11.87;89.39;97949.66;5060595;29;20233;-60
2021/10/02 01:49:26;;;;;;;7.40;6.80;;;11.10;99.90;;;12.00;88.93;97954.63;5059086;29;20230;-62
2021/10/02 01:51:59;;;;;;;7.45;6.70;;;11.10;99.90;;;12.05;88.81;97960.88;5060535;29;20213;-62
2021/10/02 01:54:36;;;;;;;8.10;7.40;;;11.10;99.90;;;12.09;87.99;97955.09;5063976;29;20213;-62
2021/10/02 01:57:10;;;;;;;8.93;8.15;;;11.10;99.90;;;11.97;88.51;97954.47;5066581;29;20616;-62
2021/10/02 01:59:44;;;;;;;8.90;7.75;;;11.10;99.90;;;11.90;88.77;97947.25;5067196;29;20198;-62
2021/10/02 02:02:21;;;;;;;7.97;7.28;;;11.00;99.90;;;11.92;88.57;97948.22;5067847;29;20209;-62
2021/10/02 02:04:56;;;;;;;7.63;6.93;;;10.90;99.90;;;11.88;88.41;97951.44;5062996;29;20662;-62
2021/10/02 02:07:30;;;;;;;7.30;6.55;;;10.90;99.90;;;11.78;88.64;97944.00;5066931;29;20256;-62
2021/10/02 02:10:08;;;;;;;6.82;6.22;;;10.80;99.90;;;11.75;88.81;97943.84;5066960;29;20321;-62
2021/10/02 02:12:43;;;;;;;7.20;6.50;;;10.80;99.90;;;11.75;88.62;97936.16;5067192;29;20210;-61
2021/10/02 02:15:18;;;;;;;6.88;6.25;;;10.80;99.90;;;11.71;88.77;97933.44;5067722;29;20892;-62
2021/10/02 02:18:01;;;;;;;7.97;6.50;;;10.70;99.90;;;11.65;88.78;97935.66;5066118;29;20206;-62
2021/10/02 02:20:42;;;;;;;6.80;6.28;;;10.60;99.90;;;11.58;89.78;97938.69;5065294;29;20674;-62
2021/10/02 02:23:16;;;;;;;7.07;6.50;;;10.60;99.90;;;11.58;89.90;97938.69;5062324;29;20205;-61
2021/10/02 02:25:49;;;;;;;7.45;6.75;;;10.60;99.90;;;11.62;89.38;97939.75;5065489;29;20239;-62
2021/10/02 02:28:23;;;;;;;6.70;6.10;;;10.70;99.90;;;11.62;89.84;97930.38;5067493;29;20727;-62
2021/10/02 02:30:57;;;;;;;6.82;6.22;;;10.70;99.90;;;11.64;90.28;97931.31;5060939;29;20705;-62
2021/10/02 02:33:32;;;;;;;7.10;6.50;;;10.70;99.90;;;11.61;90.23;97926.03;5067081;29;20209;-62
2021/10/02 02:36:07;;;;;;;7.50;6.80;;;10.70;99.90;;;11.63;90.03;97927.03;5065769;29;20228;-62
2021/10/02 02:38:40;;;;;;;7.18;6.68;;;10.70;99.90;;;11.71;90.11;97925.75;5065836;29;20241;-62
2021/10/02 02:41:14;;;;;;;7.95;7.25;;;10.80;99.90;;;11.71;90.55;97922.31;5065791;29;20207;-62
2021/10/02 02:43:47;;;;;;;8.35;7.55;;;10.80;99.90;;;11.71;90.36;97920.63;5066519;29;20206;-62
2021/10/02 02:46:29;;;;;;;8.15;7.35;;;10.80;99.90;;;11.71;90.24;97924.88;5065780;29;20314;-63
2021/10/02 02:49:12;;;;;;;9.90;8.13;;;10.80;99.90;;;11.70;90.37;97917.97;5066816;29;20211;-60
2021/10/02 02:51:57;;;;;;;7.93;7.22;;;10.80;99.90;;;11.72;90.42;97917.25;5062307;29;20317;-62
2021/10/02 02:54:38;;;;;;;7.78;7.07;;;10.80;99.90;;;11.72;90.10;97919.81;5064300;29;20202;-60
2021/10/02 02:57:15;;;;;;;7.07;6.47;;;10.80;99.90;;;11.67;90.31;97893.09;5064228;29;20313;-60
2021/10/02 02:59:56;;;;;;;7.72;7.05;;;10.80;99.90;;;11.62;90.18;97903.91;5060961;29;20202;-60
2021/10/02 03:02:33;;;;;;;7.43;6.78;;;10.70;99.90;;;11.66;90.68;97905.81;5064658;29;20202;-60
2021/10/02 03:05:10;;;;;;;8.25;7.55;;;10.80;99.90;;;11.67;91.37;97892.22;5065734;29;20710;-60
2021/10/02 03:07:52;;;;;;;8.27;7.47;;;10.80;99.90;;;11.67;90.94;97895.66;5065855;29;20203;-61
2021/10/02 03:10:25;;;;;;;8.82;7.93;;;10.80;99.90;;;11.71;90.95;97901.84;5066818;29;20317;-60
2021/10/02 03:13:04;;;;;;;8.63;7.78;;;10.90;99.90;;;11.73;91.27;97898.56;5065535;29;20241;-60
2021/10/02 03:15:39;;;;;;;8.82;7.93;;;10.90;99.90;;;11.78;91.67;97901.34;5065172;29;20312;-60
2021/10/02 03:18:14;;;;;;;8.05;7.25;;;11.00;99.90;;;11.79;91.62;97905.69;5065766;29;20550;-59
2021/10/02 03:20:53;;;;;;;8.88;8.07;;;11.00;99.90;;;11.87;91.63;97911.22;5066422;29;20671;-60
2021/10/02 03:23:27;;;;;;;8.00;7.28;;;11.00;99.90;;;11.90;90.80;97913.94;5066245;29;20290;-57
2021/10/02 03:26:03;;;;;;;7.43;6.72;;;11.00;99.90;;;11.90;90.39;97913.94;5065979;29;20261;-62
2021/10/02 03:28:36;;;;;;;7.78;7.07;;;11.00;99.90;;;11.90;89.50;97917.41;5065377;29;20614;-60
2021/10/02 03:31:10;;;;;;;7.50;6.85;;;10.90;99.90;;;11.89;89.63;97909.63;5065177;29;20226;-62
2021/10/02 03:33:46;;;;;;;8.00;7.30;;;10.90;99.90;;;11.87;89.26;97908.66;5066075;29;20301;-62
2021/10/02 03:36:21;;;;;;;7.65;6.95;;;10.90;99.90;;;11.90;89.14;97906.25;5063302;29;20687;-62
2021/10/02 03:38:54;;;;;;;8.02;7.20;;;10.90;99.90;;;11.85;89.27;97897.44;5063501;29;20206;-61
2021/10/02 03:41:27;;;;;;;10.73;9.82;;;10.90;99.90;;;11.82;89.19;97890.47;5065674;29;20287;-61
2021/10/02 03:44:02;;;;;;;8.20;7.47;;;10.90;99.90;;;11.73;90.42;97900.22;5062382;29;20205;-63
2021/10/02 03:46:35;;;;;;;7.68;7.03;;;10.80;99.90;;;11.73;90.16;97898.56;5059093;29;20308;-60
2021/10/02 03:49:08;;;;;;;7.78;7.00;;;10.80;99.90;;;11.76;90.22;97913.22;5065699;29;20315;-62
2021/10/02 03:51:47;;;;;;;7.00;6.35;;;10.90;99.90;;;11.81;90.43;97910.88;5065246;29;20226;-61
2021/10/02 03:54:20;;;;;;;7.35;6.75;;;10.90;99.90;;;11.80;90.77;97904.00;5065221;29;20289;-62
2021/10/02 03:56:53;;;;;;;7.28;6.68;;;10.90;99.90;;;11.73;91.24;97908.81;5064224;29;20751;-62
2021/10/02 03:59:27;;;;;;;7.32;6.72;;;10.90;99.90;;;11.76;90.92;97912.31;5065578;29;20305;-61
2021/10/02 04:02:00;;;;;;;7.57;6.60;;;10.90;99.90;;;11.77;90.89;97917.53;5065176;29;20682;-62
2021/10/02 04:04:33;;;;;;;7.88;7.22;;;10.90;99.90;;;11.77;90.83;97921.78;5064728;29;20203;-62
2021/10/02 04:07:08;;;;;;;8.00;7.30;;;10.80;99.90;;;11.80;90.30;97906.56;5064860;29;20766;-60
2021/10/02 04:09:41;;;;;;;8.60;7.82;;;10.80;99.90;;;11.79;90.36;97907.34;5063144;29;20289;-62
2021/10/02 04:12:14;;;;;;;8.45;7.80;;;10.80;99.90;;;11.77;90.30;97907.28;5065046;29;20737;-61
2021/10/02 04:14:48;;;;;;;7.63;6.93;;;10.90;99.90;;;11.79;90.26;97912.47;5065204;29;20564;-62
2021/10/02 04:17:21;;;;;;;8.07;7.28;;;10.80;99.90;;;11.80;89.92;97919.38;5064233;29;20233;-61
2021/10/02 04:19:55;;;;;;;7.57;6.88;;;10.80;99.90;;;11.75;90.10;97923.34;5063271;29;20204;-62
2021/10/02 04:22:29;;;;;;;7.53;6.85;;;10.80;99.90;;;11.72;90.10;97924.94;5065017;29;20194;-62
2021/10/02 04:25:02;;;;;;;8.48;7.75;;;10.80;99.90;;;11.71;90.06;97927.44;5064266;29;20203;-60
2021/10/02 04:27:35;;;;;;;8.55;7.68;;;10.80;99.90;;;11.67;90.53;97917.81;5064562;29;20207;-63
2021/10/02 04:30:09;;;;;;;8.52;7.80;;;10.80;99.90;;;11.70;90.34;97918.88;5065628;29;20309;-61
2021/10/02 04:32:42;;;;;;;8.20;7.38;;;10.80;99.90;;;11.70;89.98;97921.44;5063124;29;20309;-62
2021/10/02 04:35:15;;;;;;;10.02;9.13;;;10.80;99.90;;;11.72;89.93;97922.38;5064364;29;20223;-63
2021/10/02 04:37:49;;;;;;;8.98;8.23;;;10.80;99.90;;;11.60;89.98;97925.97;5063799;29;20203;-62
2021/10/02 04:40:22;;;;;;;8.95;8.15;;;10.70;99.90;;;11.53;90.61;97927.31;5062985;29;20301;-62
2021/10/02 04:42:55;;;;;;;7.75;7.00;;;10.60;99.90;;;11.52;90.80;97928.13;5064644;29;20211;-61
2021/10/02 04:45:28;;;;;;;7.57;6.85;;;10.60;99.90;;;11.54;90.24;97918.84;5063615;29;20281;-60
2021/10/02 04:48:01;;;;;;;7.35;6.65;;;10.60;99.90;;;11.54;90.48;97923.09;5063800;29;20202;-62
2021/10/02 04:50:34;;;;;;;7.03;6.43;;;10.60;99.90;;;11.61;90.08;97920.06;5063731;29;20207;-62
2021/10/02 04:53:09;;;;;;;8.05;7.25;;;10.60;99.90;;;11.59;90.11;97914.88;5064663;29;20305;-61
2021/10/02 04:55:42;;;;;;;7.78;7.18;;;10.70;99.90;;;11.63;90.15;97909.09;5064190;29;20224;-62
2021/10/02 04:58:15;;;;;;;6.93;6.32;;;10.70;99.90;;;11.54;90.55;97900.94;5062470;29;20202;-62
2021/10/02 05:00:49;;;;;;;7.45;6.82;;;10.60;99.90;;;11.53;90.44;97898.28;5063748;29;20207;-62
2021/10/02 05:03:22;;;;;;;6.80;6.28;;;10.50;99.90;;;11.47;90.34;97896.25;5062648;29;20235;-62
2021/10/02 05:05:55;;;;;;;7.60;6.90;;;10.50;99.90;;;11.52;90.33;97906.75;5064450;29;20309;-60
2021/10/02 05:08:30;;;;;;;7.35;6.40;;;10.60;99.90;;;11.52;90.60;97912.75;5063568;29;20202;-60
2021/10/02 05:11:04;;;;;;;7.38;6.40;;;10.70;99.90;;;11.53;90.54;97916.19;5062516;29;20288;-62
2021/10/02 05:13:37;;;;;;;7.20;6.50;;;10.60;99.90;;;11.55;90.19;97915.47;5063024;29;20203;-63
2021/10/02 05:16:10;;;;;;;7.35;6.75;;;10.60;99.90;;;11.60;90.51;97921.75;5063418;29;20233;-63
2021/10/02 05:18:44;;;;;;;8.63;7.22;;;10.70;99.90;;;11.66;90.99;97921.19;5062899;29;20584;-62
2021/10/02 05:21:17;;;;;;;8.10;7.22;;;10.70;99.90;;;11.68;91.07;97924.72;5062051;29;20199;-61
2021/10/02 05:23:51;;;;;;;7.28;6.68;;;10.80;99.90;;;11.71;91.62;97925.75;5064259;29;20206;-63
2021/10/02 05:26:24;;;;;;;8.20;7.32;;;10.90;99.90;;;11.78;91.14;97928.63;5059857;29;20233;-63
2021/10/02 05:28:57;;;;;;;7.45;6.85;;;10.80;99.90;;;11.78;90.53;97920.94;5063116;29;20210;-62
2021/10/02 05:31:31;;;;;;;7.63;6.93;;;10.80;99.90;;;11.68;90.87;97920.47;5065034;29;20298;-62
2021/10/02 05:34:04;;;;;;;7.85;7.15;;;10.80;99.90;;;11.63;90.61;97915.91;5065209;29;20206;-60
2021/10/02 05:36:37;;;;;;;7.30;6.70;;;10.70;99.90;;;11.59;91.19;97909.75;5065491;29;20232;-60
2021/10/02 05:39:12;;;;;;;8.38;7.68;;;10.70;99.90;;;11.64;91.12;97915.97;5068589;29;20663;-61
2021/10/02 05:41:45;;;;;;;8.82;8.02;;;10.70;99.90;;;11.62;91.26;97907.34;5067849;29;20534;-60
2021/10/02 05:44:18;;;;;;;9.90;8.98;;;10.70;99.90;;;11.58;91.36;97907.97;5065902;29;20206;-60
2021/10/02 05:46:51;;;;;;;9.07;8.00;;;10.70;99.90;;;11.58;91.67;97907.97;5062749;29;20250;-61
2021/10/02 05:49:24;;;;;;;9.10;8.25;;;10.70;99.90;;;11.50;91.48;97899.91;5064993;29;20206;-61
2021/10/02 05:51:57;;;;;;;8.63;7.93;;;10.70;99.90;;;11.51;91.17;97895.66;5063937;29;20227;-60
2021/10/02 05:54:31;;;;;;;8.93;8.10;;;10.70;99.90;;;11.52;91.45;97899.97;5065132;29;20687;-60
2021/10/02 05:57:04;;;;;;;9.18;8.38;;;10.70;99.90;;;11.53;92.03;97899.16;5066498;29;20226;-61
2021/10/02 05:59:38;;;;;;;9.18;8.30;;;10.70;99.90;;;11.51;91.70;97887.97;5066169;29;20731;-61
2021/10/02 06:02:11;;;;;;;9.88;8.88;;;10.60;99.90;;;11.53;92.13;97886.34;5066166;29;20195;-60
2021/10/02 06:04:44;;;;;;;9.15;8.23;;;10.60;99.90;;;11.58;91.89;97887.47;5062954;29;20483;-60
2021/10/02 06:07:17;;;;;;;8.50;7.80;;;10.70;99.90;;;11.65;91.68;97884.47;5064432;29;20289;-62
2021/10/02 06:09:52;;;;;;;9.77;8.88;;;10.80;99.90;;;11.67;91.87;97874.28;5063452;29;20217;-61
2021/10/02 06:12:25;;;;;;;15.30;14.00;;;10.80;99.90;;;11.82;91.50;97871.69;5066237;29;20226;-60
2021/10/02 06:14:58;;;;;;;14.65;13.25;;;11.00;99.90;;;11.84;91.27;97880.31;5066419;29;20297;-61
2021/10/02 06:17:31;;;;;;;15.40;13.88;;;11.00;99.90;;;11.93;90.93;97878.25;5061886;29;20266;-58
2021/10/02 06:20:07;;;;;;;12.20;11.10;;;11.10;99.90;;;11.98;90.87;97868.25;5066142;29;20583;-61
2021/10/02 06:22:40;;;;;;;14.10;12.80;;;11.10;99.90;;;12.07;90.76;97877.28;5064634;29;20230;-61
2021/10/02 06:25:15;;;;;;;13.02;10.40;;;11.20;99.90;;;12.05;90.94;97884.03;5066121;29;20230;-61
2021/10/02 06:27:48;;;;;;;10.20;9.20;;;11.20;99.90;;;12.22;90.74;97878.84;5064408;29;20296;-60
2021/10/02 06:30:21;;;;;;;9.95;9.05;;;11.30;99.90;;;12.36;89.78;97883.00;5065450;29;20203;-61
2021/10/02 06:32:54;;;;;;;10.27;9.27;;;11.50;99.90;;;12.47;89.61;97881.84;5065015;29;20223;-61
2021/10/02 06:35:27;;;;;;;9.43;8.52;;;11.60;99.90;;;12.61;88.94;97879.97;5065612;29;20226;-60
2021/10/02 06:38:00;;;;;;;8.80;8.00;;;11.70;99.90;;;12.79;88.20;97882.56;5063355;29;20697;-60
2021/10/02 06:40:38;;;;;;;9.95;8.95;;;11.90;99.90;;;12.96;88.13;97884.28;5064203;29;20673;-61
2021/10/02 06:43:12;;;;;;;10.30;9.30;;;12.10;99.90;;;13.04;87.60;97882.06;5058370;29;20199;-61
2021/10/02 06:45:45;;;;;;;9.75;8.80;;;12.20;99.90;;;13.12;86.25;97885.00;5064282;29;20262;-59
2021/10/02 06:48:18;;;;;;;10.40;9.40;;;12.20;99.90;;;13.02;84.62;97879.44;5142340;23;20249;-62
2021/10/02 06:50:51;;;;;;;9.93;9.02;;;12.10;99.90;;;13.04;84.94;97882.94;5163368;28;20203;-61
2021/10/02 06:53:24;;;;;;;9.05;8.05;;;12.00;99.90;;;13.04;85.49;97880.38;5171469;28;20218;-62
2021/10/02 06:55:59;;;;;;;9.10;8.30;;;12.10;99.90;;;13.16;86.33;97892.94;5175741;28;20232;-62
2021/10/02 06:58:32;;;;;;;9.82;8.93;;;12.20;99.90;;;13.26;86.00;97896.84;5156626;28;20238;-63
2021/10/02 07:01:05;;;;;;;10.15;9.25;;;12.30;99.90;;;13.34;85.71;97897.19;5145672;28;20246;-65
2021/10/02 07:03:38;;;;;;;10.15;9.23;;;12.40;99.90;;;13.39;85.89;97899.19;5159978;28;20203;-65
2021/10/02 07:06:11;;;;;;;9.82;9.02;;;12.50;99.90;;;13.40;85.69;97893.22;5148605;28;20200;-64
2021/10/02 07:08:44;;;;;;;9.85;8.95;;;12.50;99.90;;;13.43;86.39;97893.38;5150312;28;20228;-65
2021/10/02 07:11:19;;;;;;;8.43;7.72;;;12.50;99.90;;;13.41;85.57;97894.09;5155508;28;20204;-65
2021/10/02 07:13:53;;;;;;;8.90;8.13;;;12.50;99.90;;;13.49;86.22;97896.22;5152172;28;20227;-65
2021/10/02 07:16:26;;;;;;;9.13;8.27;;;12.50;99.90;;;13.55;84.34;97894.75;5142552;28;20200;-63
2021/10/02 07:19:01;;;;;;;8.95;8.25;;;12.50;99.90;;;13.56;85.02;97887.09;5142520;28;20232;-64
2021/10/02 07:21:34;;;;;;;9.13;8.23;;;12.50;99.90;;;13.63;84.88;97890.84;5143703;28;20202;-64
2021/10/02 07:24:07;;;;;;;8.63;7.90;;;12.60;99.90;;;13.52;85.64;97883.50;5148438;28;20203;-64
2021/10/02 07:26:42;;;;;;;7.85;7.15;;;12.60;99.90;;;13.69;85.40;97880.84;5154417;28;20574;-64
2021/10/02 07:29:15;;;;;;;9.32;7.82;;;12.70;99.90;;;13.82;85.07;97883.16;5150021;28;20226;-64
2021/10/02 07:31:49;;;;;;;8.35;7.65;;;12.90;99.90;;;14.03;84.38;97883.22;5151420;28;20200;-65
2021/10/02 07:34:22;;;;;;;9.10;8.30;;;13.10;99.90;;;14.27;84.43;97882.50;5146886;28;20661;-64
2021/10/02 07:36:55;;;;;;;8.40;7.70;;;13.40;99.90;;;14.50;83.55;97879.22;5144781;28;20241;-65
2021/10/02 07:39:28;;;;;;;9.38;8.57;;;13.60;99.90;;;14.82;82.81;97882.25;5141892;28;20214;-64
2021/10/02 07:42:03;;;;;;;9.52;8.60;;;13.90;99.90;;;15.03;81.69;97890.00;5151511;28;20199;-64
2021/10/02 07:44:37;;;;;;;9.05;8.15;;;14.10;99.90;;;15.13;80.22;97876.66;5142102;28;20222;-65
2021/10/02 07:47:13;;;;;;;8.85;8.05;;;14.20;99.90;;;15.24;80.22;97884.81;5146045;28;20226;-65
2021/10/02 07:49:49;;;;;;;9.52;8.63;;;14.30;99.90;;;15.40;79.22;97896.59;5145743;28;20568;-64
2021/10/02 07:52:22;;;;;;;16.23;12.07;;;14.40;99.90;;;15.48;78.04;97890.91;5144161;28;20195;-65
2021/10/02 07:54:58;;;;;;;38.75;23.25;;;14.60;99.90;;;15.64;78.33;97891.50;5141757;28;20294;-66
2021/10/02 07:57:33;;;;;;;13.32;11.90;;;14.80;99.90;;;15.75;77.62;97880.78;5141503;28;20216;-64
2021/10/02 08:00:08;;;;;;;19.83;14.77;;;14.80;99.90;;;15.86;76.93;97877.75;5154463;28;20209;-65
2021/10/02 08:02:44;;;;;;;48.70;25.90;;;14.90;99.90;;;15.97;76.09;97884.16;5149234;28;20575;-65
2021/10/02 08:05:18;;;;;;;39.35;23.85;;;15.00;99.90;;;16.04;75.80;97886.13;5141161;28;20219;-64
2021/10/02 08:07:51;;;;;;;45.97;29.15;;;15.10;99.90;;;16.04;75.49;97893.88;5140826;28;20231;-64
2021/10/02 08:10:27;;;;;;;25.42;17.15;;;15.00;99.90;;;16.11;75.37;97889.78;5151022;28;20200;-64
2021/10/02 08:13:02;;;;;;;70.57;41.42;;;15.00;99.90;;;16.33;75.38;97889.72;5156332;28;20239;-64
2021/10/02 08:15:35;;;;;;;105.97;60.08;;;15.40;99.90;;;16.55;74.94;97881.03;5152966;28;20286;-63
2021/10/02 08:18:10;;;;;;;23.48;16.95;;;15.70;99.90;;;16.80;74.53;97876.72;5148343;28;20702;-64
2021/10/02 08:20:45;;;;;;;15.23;13.65;;;16.00;99.90;;;17.07;73.26;97877.59;5149951;28;20206;-64
2021/10/02 08:23:18;;;;;;;10.80;9.70;;;16.30;99.90;;;17.15;73.09;97879.56;5146407;28;20225;-64
2021/10/02 08:25:54;;;;;;;22.77;18.90;;;16.40;99.90;;;17.47;71.78;97881.44;5146018;28;20213;-64
2021/10/02 08:28:32;;;;;;;22.42;14.90;;;16.80;99.90;;;17.71;71.05;97880.41;5147970;28;20242;-65
2021/10/02 08:31:05;;;;;;;17.17;13.82;;;17.00;99.90;;;17.84;71.43;97864.44;5140298;28;20195;-65
2021/10/02 08:33:38;;;;;;;10.93;8.32;;;17.30;99.90;;;18.12;70.28;97854.88;5148004;28;20230;-63
2021/10/02 08:36:15;;;;;;;7.63;7.03;;;17.50;99.90;;;18.24;69.87;97847.44;5143891;28;20207;-63
2021/10/02 08:38:48;;;;;;;7.32;6.63;;;17.60;99.90;;;18.56;69.11;97857.75;5150036;28;20227;-63
2021/10/02 08:41:24;;;;;;;8.15;7.32;;;17.90;99.90;;;18.78;68.47;97854.91;5150674;28;20228;-63
2021/10/02 08:44:00;;;;;;;7.57;6.88;;;18.20;99.90;;;18.98;67.25;97862.28;5152059;28;20205;-63
2021/10/02 08:46:34;;;;;;;8.15;7.38;;;18.40;99.90;;;19.26;66.72;97856.03;5147936;28;20203;-63
2021/10/02 08:49:32;;;;;;;8.68;7.78;;;18.60;99.90;;;19.45;65.73;97858.16;5147707;28;20199;-63
2021/10/02 08:52:06;;;;;;;9.38;8.48;;;18.70;99.90;;;19.59;64.45;97850.69;5139288;28;20330;-63
2021/10/02 08:54:42;;;;;;;8.82;8.00;;;18.80;99.90;;;19.56;64.93;97854.09;5142803;28;20564;-64
2021/10/02 08:57:21;;;;;;;9.02;8.23;;;18.80;99.90;;;19.62;64.56;97855.94;5141120;28;20305;-63
2021/10/02 08:59:57;;;;;;;9.32;8.43;;;18.90;99.90;;;19.76;63.53;97854.56;5138020;28;20204;-64
2021/10/02 09:02:30;;;;;;;8.57;7.78;;;19.00;99.90;;;19.74;63.05;97845.88;5142965;28;20208;-63
2021/10/02 09:05:07;;;;;;;9.93;8.98;;;18.90;99.90;;;19.77;63.56;97835.56;5142400;28;20672;-63
2021/10/02 09:07:40;;;;;;;9.20;8.35;;;19.00;99.90;;;19.78;63.67;97834.72;5139964;28;20262;-62
2021/10/02 09:10:14;;;;;;;9.00;7.40;;;19.10;99.90;;;19.95;63.73;97824.69;5137957;28;20588;-60
2021/10/02 09:12:49;;;;;;;7.05;6.35;;;19.30;99.90;;;20.27;61.11;97826.13;5139837;28;20578;-61
2021/10/02 09:15:24;;;;;;;6.38;5.78;;;19.60;99.90;;;20.27;57.52;97827.00;5138646;28;20269;-62
2021/10/02 09:17:58;;;;;;;7.05;6.28;;;19.70;99.90;;;20.30;59.56;97826.19;5137829;28;20318;-63
2021/10/02 09:20:31;;;;;;;7.10;6.40;;;19.70;99.90;;;20.60;58.96;97811.19;5139978;28;20227;-63
2021/10/02 09:23:08;;;;;;;6.60;5.95;;;20.00;99.90;;;20.76;58.58;97811.41;5140969;28;20682;-63
2021/10/02 09:25:49;;;;;;;6.20;5.60;;;20.20;99.90;;;21.00;55.04;97810.91;5141875;28;20703;-63
2021/10/02 09:28:22;;;;;;;5.10;4.70;;;20.40;99.90;;;21.10;51.81;97800.69;5140174;28;20227;-64
2021/10/02 09:31:05;;;;;;;4.72;4.32;;;20.50;99.50;;;21.17;51.46;97792.97;5144795;28;20555;-63
2021/10/02 09:33:44;;;;;;;4.70;4.30;;;20.50;99.20;;;21.41;50.40;97788.16;5143595;28;20310;-64
2021/10/02 09:36:21;;;;;;;4.70;4.30;;;20.80;98.40;;;21.63;49.83;97789.25;5146744;28;20198;-64
2021/10/02 09:38:55;;;;;;;4.80;4.38;;;21.00;97.90;;;21.77;49.86;97784.22;5153831;28;20315;-64
2021/10/02 09:41:29;;;;;;;4.40;4.00;;;21.10;97.20;;;21.93;49.22;97788.75;5146075;28;20195;-64
2021/10/02 09:44:02;;;;;;;4.25;3.92;;;21.30;96.80;;;22.05;47.62;97783.69;5154095;28;20294;-64
2021/10/02 09:46:37;;;;;;;4.20;3.80;;;21.40;95.90;;;22.22;46.25;97788.22;5147053;28;20195;-64
2021/10/02 09:49:10;;;;;;;7.25;6.55;;;21.50;95.20;;;22.29;46.88;97783.94;5141037;28;20580;-64
2021/10/02 09:51:46;;;;;;;8.80;7.90;;;21.50;95.70;;;22.59;46.75;97781.59;5145154;28;20306;-64
2021/10/02 09:54:38;;;;;;;4.93;4.53;;;21.80;95.80;;;22.63;43.03;97777.28;5143889;28;20294;-64
2021/10/02 09:57:14;;;;;;;4.28;3.97;;;21.90;92.60;;;22.70;42.58;97768.66;5150388;28;20719;-64
2021/10/02 09:59:47;;;;;;;5.22;4.82;;;22.10;92.00;;;22.71;42.50;97765.19;5147235;28;20659;-64
2021/10/02 10:02:25;;;;;;;4.50;3.42;;;21.90;91.90;;;22.68;42.83;97766.03;5143201;28;20286;-64
2021/10/02 10:04:58;;;;;;;3.80;3.50;;;21.90;92.50;;;22.76;43.01;97757.41;5147060;28;20212;-63
2021/10/02 10:07:31;;;;;;;6.85;3.50;;;22.10;92.20;;;22.86;43.08;97761.81;5141221;28;20223;-63
2021/10/02 10:10:10;;;;;;;3.75;3.42;;;22.10;92.50;;;22.91;43.21;97757.50;5144004;28;20508;-64
2021/10/02 10:12:43;;;;;;;4.63;3.90;;;22.30;92.30;;;22.96;43.63;97752.38;5140797;28;20195;-64
2021/10/02 10:15:35;;;;;;;4.05;3.75;;;22.30;92.40;;;23.04;43.05;97746.34;5145491;28;20220;-64
2021/10/02 10:18:13;;;;;;;3.80;3.50;;;22.40;92.40;;;23.03;43.77;97744.56;5146652;28;20220;-64
2021/10/02 10:20:51;;;;;;;5.63;3.90;;;22.20;92.70;;;23.06;43.03;97728.09;5145013;28;20626;-64
2021/10/02 10:23:30;;;;;;;4.32;3.92;;;22.30;92.20;;;22.94;44.18;97732.31;5147717;28;20199;-64
2021/10/02 10:26:07;;;;;;;4.88;4.47;;;22.30;93.00;;;23.03;44.98;97722.84;5142228;28;20688;-64
2021/10/02 10:28:43;;;;;;;4.13;3.83;;;22.30;93.50;;;23.09;44.58;97723.78;5143414;28;20255;-64
2021/10/02 10:31:20;;;;;;;4.57;4.18;;;22.30;93.30;;;23.15;43.97;97717.72;5140236;28;20203;-64
2021/10/02 10:33:58;;;;;;;5.47;4.43;;;22.30;92.90;;;23.05;44.88;97721.13;5145190;28;20658;-64
2021/10/02 10:36:32;;;;;;;4.68;4.22;;;22.40;93.40;;;23.23;45.91;97712.53;5144231;28;20251;-64
2021/10/02 10:39:05;;;;;;;5.60;4.97;;;22.40;94.00;;;23.29;44.60;97708.22;5144899;28;20233;-65
2021/10/02 10:41:39;;;;;;;6.18;5.57;;;22.50;93.30;;;23.33;45.46;97703.88;5139257;28;20202;-64
2021/10/02 10:44:13;;;;;;;6.65;6.03;;;22.50;94.10;;;23.19;45.93;97695.13;5143768;28;20695;-65
2021/10/02 10:46:50;;;;;;;6.70;5.85;;;22.50;94.00;;;23.28;46.82;97701.25;5134655;28;20251;-65
2021/10/02 10:49:26;;;;;;;5.35;4.85;;;22.60;94.60;;;23.26;45.61;97700.34;5141556;28;20717;-65
2021/10/02 10:52:02;;;;;;;5.47;5.03;;;22.50;94.30;;;23.19;46.57;97703.81;5143844;28;20201;-65
2021/10/02 10:54:42;;;;;;;5.20;4.70;;;22.40;94.40;;;23.34;45.64;97696.03;5143683;28;20208;-66
2021/10/02 10:57:40;;;;;;;5.22;4.82;;;22.50;93.90;;;23.42;45.50;97692.63;5149883;28;20227;-65
2021/10/02 11:00:18;;;;;;;4.88;4.47;;;22.60;94.00;;;23.19;45.74;97689.91;5148044;28;20206;-66
2021/10/02 11:02:54;;;;;;;5.10;4.60;;;22.40;93.80;;;23.15;46.95;97687.28;5147821;28;20577;-65
2021/10/02 11:05:52;;;;;;;5.72;5.10;;;22.40;94.50;;;23.09;47.58;97683.75;5147093;28;20196;-66
2021/10/02 11:09:00;;;;;;;5.30;4.80;;;22.40;94.90;;;23.12;46.84;97686.38;5143218;28;20231;-65
2021/10/02 11:11:56;;;;;;;5.53;4.32;;;22.30;94.60;;;23.17;46.57;97684.69;5148175;28;20196;-66
2021/10/02 11:15:02;;;;;;;5.53;4.50;;;22.40;94.40;;;23.03;46.47;97683.75;5131271;23;20243;-65
2021/10/02 11:17:45;;;;;;;5.47;4.97;;;22.30;94.30;;;23.03;47.26;97679.41;5123336;28;20311;-65
2021/10/02 11:20:40;;;;;;;4.95;4.45;;;22.30;94.80;;;23.26;44.70;97671.66;5125574;28;20205;-61
2021/10/02 11:24:09;;;;;;;4.68;4.25;;;22.40;93.50;;;23.14;45.96;97667.28;5117832;28;20216;-65
2021/10/02 11:26:50;;;;;;;5.93;4.95;;;22.40;94.00;;;23.14;46.27;97663.81;5117410;28;20192;-65
2021/10/02 11:29:33;;;;;;;4.72;4.38;;;22.40;94.20;;;23.22;45.27;97654.28;5115447;28;20201;-64
2021/10/02 11:32:33;;;;;;;5.18;4.70;;;22.40;93.50;;;23.26;44.94;97657.75;5109849;28;20292;-63
2021/10/02 11:35:29;;;;;;;5.32;4.80;;;22.30;93.40;;;23.23;45.64;97649.94;5133466;23;20256;-60
2021/10/02 11:38:07;;;;;;;4.40;4.00;;;22.30;93.90;;;23.20;46.32;97644.69;5123408;28;20219;-61
2021/10/02 11:40:50;;;;;;;6.15;4.30;;;22.30;94.30;;;23.32;45.63;97635.19;5121905;28;20207;-61
2021/10/02 11:43:30;;;;;;;4.95;4.55;;;22.40;93.80;;;23.25;45.60;97641.25;5116045;28;20297;-61
2021/10/02 11:46:09;;;;;;;5.18;4.78;;;22.50;93.60;;;23.20;45.78;97629.91;5100070;29;20201;-62